createdAt,value
2018-03-21T00:00:58.840Z,10.50
2018-03-21T00:01:58.852Z,7.50
2018-03-21T00:02:58.866Z,9.40
2018-03-21T00:03:58.880Z,5.50
2018-03-21T00:04:58.894Z,9.70
2018-03-21T00:05:58.906Z,5.70
2018-03-21T00:06:58.920Z,7.90
2018-03-21T00:07:58.941Z,8.30
2018-03-21T00:08:58.948Z,9.10
2018-03-21T00:09:58.962Z,7.50
2018-03-21T00:10:58.975Z,8.90
2018-03-21T00:11:58.990Z,9.50
2018-03-21T00:12:59.003Z,6.10
2018-03-21T00:13:59.019Z,9.80
2018-03-21T00:14:59.032Z,8.00
2018-03-21T00:15:59.044Z,8.80
2018-03-21T00:16:59.057Z,7.20
2018-03-21T00:17:59.069Z,6.80
2018-03-21T00:18:59.084Z,7.00
2018-03-21T00:19:59.100Z,9.80
2018-03-21T00:20:59.111Z,7.60
2018-03-21T00:21:59.125Z,8.00
2018-03-21T00:22:59.138Z,6.30
2018-03-21T00:23:59.150Z,11.00
2018-03-21T00:24:59.166Z,8.00
2018-03-21T00:25:59.178Z,8.10
2018-03-21T00:26:59.192Z,6.70
2018-03-21T00:27:59.206Z,8.50
2018-03-21T00:28:59.220Z,8.20
2018-03-21T00:29:59.233Z,10.20
2018-03-21T00:30:59.246Z,9.50
2018-03-21T00:31:59.260Z,8.00
2018-03-21T00:32:59.275Z,6.80
2018-03-21T00:33:59.288Z,8.00
2018-03-21T00:34:59.302Z,8.50
2018-03-21T00:35:59.314Z,8.60
2018-03-21T00:36:59.328Z,8.90
2018-03-21T00:37:59.340Z,9.10
2018-03-21T00:38:59.354Z,6.40
2018-03-21T00:39:59.368Z,9.70
2018-03-21T00:40:59.382Z,5.70
2018-03-21T00:41:59.395Z,13.80
2018-03-21T00:42:59.409Z,9.00
2018-03-21T00:43:59.422Z,8.10
2018-03-21T00:44:59.437Z,9.30
2018-03-21T00:45:59.499Z,10.60
2018-03-21T00:46:59.463Z,6.50
2018-03-21T00:47:59.477Z,7.10
2018-03-21T00:48:59.491Z,9.20
2018-03-21T00:49:59.503Z,9.10
2018-03-21T00:50:59.517Z,6.60
2018-03-21T00:51:59.530Z,8.70
2018-03-21T00:52:59.545Z,11.60
2018-03-21T00:53:59.557Z,8.50
2018-03-21T00:54:59.571Z,9.70
2018-03-21T00:55:59.586Z,9.50
2018-03-21T00:56:59.599Z,9.00
2018-03-21T00:57:59.611Z,8.80
2018-03-21T00:58:59.626Z,8.20
2018-03-21T00:59:59.644Z,11.70
2018-03-21T01:00:59.653Z,9.30
2018-03-21T01:01:59.664Z,8.40
2018-03-21T01:02:59.679Z,6.10
2018-03-21T01:03:59.693Z,10.50
2018-03-21T01:04:59.706Z,9.30
2018-03-21T01:05:59.719Z,12.70
2018-03-21T01:06:59.732Z,10.70
2018-03-21T01:07:59.746Z,7.80
2018-03-21T01:08:59.760Z,8.80
2018-03-21T01:09:59.773Z,8.60
2018-03-21T01:10:59.786Z,7.00
2018-03-21T01:11:59.800Z,7.50
2018-03-21T01:12:59.814Z,8.80
2018-03-21T01:13:59.828Z,8.90
2018-03-21T01:14:59.839Z,8.00
2018-03-21T01:15:59.853Z,8.50
2018-03-21T01:16:59.867Z,10.10
2018-03-21T01:17:59.880Z,10.50
2018-03-21T01:18:59.894Z,9.90
2018-03-21T01:19:59.908Z,11.60
2018-03-21T01:20:59.922Z,13.70
2018-03-21T01:21:59.934Z,9.90
2018-03-21T01:22:59.948Z,11.40
2018-03-21T01:23:59.962Z,9.90
2018-03-21T01:24:59.976Z,9.90
2018-03-21T01:25:59.987Z,7.60
2018-03-21T01:27:00.001Z,8.80
2018-03-21T01:28:00.015Z,7.00
2018-03-21T01:29:00.029Z,12.40
2018-03-21T01:30:00.042Z,8.30
2018-03-21T01:31:00.056Z,10.60
2018-03-21T01:32:00.070Z,6.10
2018-03-21T01:33:00.083Z,10.50
2018-03-21T01:34:00.096Z,10.10
2018-03-21T01:35:00.110Z,10.00
2018-03-21T01:36:00.123Z,13.70
2018-03-21T01:37:00.136Z,7.60
2018-03-21T01:38:00.149Z,8.40
2018-03-21T01:39:00.166Z,15.80
2018-03-21T01:40:00.176Z,12.60
2018-03-21T01:41:00.190Z,9.80
2018-03-21T01:42:00.202Z,7.60
2018-03-21T01:43:00.218Z,8.10
2018-03-21T01:44:00.229Z,11.00
2018-03-21T01:45:00.244Z,7.70
2018-03-21T01:46:00.255Z,7.00
2018-03-21T01:47:00.310Z,10.40
2018-03-21T01:48:00.285Z,11.90
2018-03-21T01:49:00.297Z,10.00
2018-03-21T01:50:00.310Z,11.80
2018-03-21T01:51:00.323Z,11.80
2018-03-21T01:52:00.337Z,11.00
2018-03-21T01:53:00.352Z,7.30
2018-03-21T01:54:00.366Z,9.60
2018-03-21T01:55:00.379Z,7.80
2018-03-21T01:56:00.391Z,10.10
2018-03-21T01:57:00.405Z,7.50
2018-03-21T01:58:00.419Z,11.00
2018-03-21T01:59:00.431Z,8.60
2018-03-21T02:00:00.444Z,8.30
2018-03-21T02:01:00.458Z,11.70
2018-03-21T02:02:00.471Z,10.50
2018-03-21T02:03:00.485Z,11.50
2018-03-21T02:04:00.500Z,7.00
2018-03-21T02:05:00.512Z,9.00
2018-03-21T02:06:00.526Z,6.90
2018-03-21T02:07:00.539Z,10.90
2018-03-21T02:08:00.552Z,9.80
2018-03-21T02:09:00.567Z,7.40
2018-03-21T02:10:00.579Z,13.20
2018-03-21T02:11:00.592Z,7.80
2018-03-21T02:12:00.606Z,9.30
2018-03-21T02:13:00.622Z,7.30
2018-03-21T02:14:00.632Z,10.10
2018-03-21T02:15:00.647Z,8.20
2018-03-21T02:16:00.660Z,12.30
2018-03-21T02:17:00.673Z,15.20
2018-03-21T02:18:00.685Z,7.50
2018-03-21T02:19:00.699Z,11.60
2018-03-21T02:20:00.713Z,11.30
2018-03-21T02:21:00.726Z,9.40
2018-03-21T02:22:00.738Z,7.70
2018-03-21T02:23:00.753Z,13.30
2018-03-21T02:24:00.766Z,9.90
2018-03-21T02:25:00.780Z,13.00
2018-03-21T02:26:00.795Z,12.50
2018-03-21T02:27:00.805Z,9.20
2018-03-21T02:28:00.820Z,7.00
2018-03-21T02:29:00.833Z,7.90
2018-03-21T02:30:00.847Z,8.50
2018-03-21T02:31:00.859Z,12.60
2018-03-21T02:32:00.874Z,9.20
2018-03-21T02:33:00.887Z,8.60
2018-03-21T02:34:00.900Z,8.80
2018-03-21T02:35:00.912Z,8.30
2018-03-21T02:36:00.926Z,9.90
2018-03-21T02:37:00.940Z,9.40
2018-03-21T02:38:00.952Z,7.60
2018-03-21T02:39:00.977Z,8.10
2018-03-21T02:40:00.985Z,8.10
2018-03-21T02:41:00.992Z,7.50
2018-03-21T02:42:01.004Z,8.40
2018-03-21T02:43:01.032Z,7.40
2018-03-21T02:44:01.031Z,10.30
2018-03-21T02:45:01.046Z,9.20
2018-03-21T02:46:01.058Z,6.10
2018-03-21T02:47:01.077Z,7.50
2018-03-21T02:48:01.084Z,9.20
2018-03-21T02:49:01.098Z,8.10
2018-03-21T02:50:01.116Z,11.10
2018-03-21T02:51:01.125Z,9.10
2018-03-21T02:52:01.140Z,13.20
2018-03-21T02:53:01.150Z,10.90
2018-03-21T02:54:01.162Z,11.60
2018-03-21T02:55:01.180Z,11.70
2018-03-21T02:56:01.189Z,9.20
2018-03-21T02:57:01.204Z,9.50
2018-03-21T02:58:01.217Z,9.70
2018-03-21T02:59:01.231Z,10.20
2018-03-21T03:00:01.244Z,8.10
2018-03-21T03:01:01.257Z,5.30
2018-03-21T03:02:01.267Z,11.90
2018-03-21T03:03:01.282Z,10.30
2018-03-21T03:04:01.296Z,12.30
2018-03-21T03:05:01.308Z,9.30
2018-03-21T03:06:01.321Z,11.10
2018-03-21T03:07:01.348Z,9.80
2018-03-21T03:08:01.347Z,9.40
2018-03-21T03:09:01.361Z,10.10
2018-03-21T03:10:01.372Z,8.50
2018-03-21T03:11:01.389Z,12.60
2018-03-21T03:12:01.401Z,14.00
2018-03-21T03:13:01.413Z,7.40
2018-03-21T03:14:01.423Z,11.10
2018-03-21T03:15:01.437Z,6.80
2018-03-21T03:16:01.502Z,9.20
2018-03-21T03:17:01.470Z,9.90
2018-03-21T03:18:01.528Z,11.80
2018-03-21T03:19:01.491Z,11.60
2018-03-21T03:20:01.504Z,8.20
2018-03-21T03:21:01.516Z,9.30
2018-03-21T03:22:01.529Z,12.80
2018-03-21T03:23:01.542Z,7.30
2018-03-21T03:24:01.556Z,11.30
2018-03-21T03:25:01.572Z,5.90
2018-03-21T03:26:01.582Z,10.30
2018-03-21T03:27:01.600Z,8.70
2018-03-21T03:28:01.614Z,10.10
2018-03-21T03:29:01.621Z,10.60
2018-03-21T03:30:01.635Z,8.20
2018-03-21T03:31:01.648Z,9.10
2018-03-21T03:32:01.661Z,11.40
2018-03-21T03:33:01.674Z,9.20
2018-03-21T03:34:01.686Z,9.50
2018-03-21T03:35:01.699Z,11.10
2018-03-21T03:36:01.712Z,8.60
2018-03-21T03:37:01.726Z,14.60
2018-03-21T03:38:01.739Z,10.50
2018-03-21T03:39:01.754Z,12.80
2018-03-21T03:40:01.767Z,11.10
2018-03-21T03:41:01.779Z,8.00
2018-03-21T03:42:01.791Z,7.50
2018-03-21T03:43:01.806Z,9.70
2018-03-21T03:44:01.826Z,10.20
2018-03-21T03:45:01.833Z,12.20
2018-03-21T03:46:01.850Z,12.10
2018-03-21T03:47:01.865Z,9.10
2018-03-21T03:48:01.871Z,11.40
2018-03-21T03:49:01.884Z,12.20
2018-03-21T03:50:01.896Z,12.40
2018-03-21T03:51:01.910Z,10.40
2018-03-21T03:52:01.923Z,9.00
2018-03-21T03:53:01.937Z,8.50
2018-03-21T03:54:01.949Z,13.40
2018-03-21T03:55:01.964Z,10.70
2018-03-21T03:56:01.976Z,13.40
2018-03-21T03:57:01.989Z,9.90
2018-03-21T03:58:02.002Z,15.60
2018-03-21T03:59:02.015Z,11.90
2018-03-21T04:00:02.031Z,12.20
2018-03-21T04:01:02.041Z,13.90
2018-03-21T04:02:02.054Z,13.70
2018-03-21T04:03:02.067Z,12.80
2018-03-21T04:04:02.081Z,11.00
2018-03-21T04:05:02.093Z,11.40
2018-03-21T04:06:02.107Z,13.00
2018-03-21T04:07:02.120Z,18.90
2018-03-21T04:08:02.138Z,16.10
2018-03-21T04:09:02.154Z,15.00
2018-03-21T04:10:02.160Z,16.30
2018-03-21T04:11:02.175Z,13.50
2018-03-21T04:12:02.185Z,15.50
2018-03-21T04:13:02.199Z,12.90
2018-03-21T04:14:02.210Z,13.40
2018-03-21T04:15:02.225Z,13.30
2018-03-21T04:16:02.244Z,9.90
2018-03-21T04:17:02.252Z,14.40
2018-03-21T04:18:02.278Z,14.50
2018-03-21T04:19:02.276Z,19.70
2018-03-21T04:20:02.333Z,16.30
2018-03-21T04:21:02.302Z,13.60
2018-03-21T04:22:02.315Z,13.40
2018-03-21T04:23:02.328Z,14.80
2018-03-21T04:24:02.342Z,14.40
2018-03-21T04:25:02.355Z,14.10
2018-03-21T04:26:02.373Z,13.30
2018-03-21T04:27:02.384Z,14.10
2018-03-21T04:28:02.400Z,19.50
2018-03-21T04:29:02.407Z,14.80
2018-03-21T04:30:02.418Z,14.20
2018-03-21T04:31:02.432Z,17.90
2018-03-21T04:32:02.445Z,16.60
2018-03-21T04:33:02.458Z,16.00
2018-03-21T04:34:02.470Z,14.20
2018-03-21T04:35:02.483Z,13.10
2018-03-21T04:36:02.496Z,16.00
2018-03-21T04:37:02.510Z,17.30
2018-03-21T04:38:02.522Z,16.30
2018-03-21T04:39:02.535Z,18.40
2018-03-21T04:40:02.548Z,15.70
2018-03-21T04:41:02.562Z,17.00
2018-03-21T04:42:02.573Z,13.40
2018-03-21T04:43:02.587Z,13.80
2018-03-21T04:44:02.600Z,15.70
2018-03-21T04:45:02.614Z,15.40
2018-03-21T04:46:02.627Z,11.20
2018-03-21T04:47:02.639Z,12.00
2018-03-21T04:48:02.652Z,14.50
2018-03-21T04:49:02.666Z,13.30
2018-03-21T04:50:02.678Z,16.40
2018-03-21T04:51:02.691Z,16.90
2018-03-21T04:52:02.703Z,18.70
2018-03-21T04:53:02.717Z,16.20
2018-03-21T04:54:02.729Z,17.00
2018-03-21T04:55:02.742Z,24.30
2018-03-21T04:56:02.756Z,14.30
2018-03-21T04:57:02.769Z,15.80
2018-03-21T04:58:02.781Z,17.40
2018-03-21T04:59:02.793Z,13.50
2018-03-21T05:00:02.806Z,17.90
2018-03-21T05:01:02.820Z,15.40
2018-03-21T05:02:02.832Z,13.10
2018-03-21T05:03:02.848Z,16.30
2018-03-21T05:04:02.860Z,18.70
2018-03-21T05:05:02.871Z,15.00
2018-03-21T05:06:02.885Z,11.20
2018-03-21T05:07:02.895Z,14.40
2018-03-21T05:08:02.908Z,14.90
2018-03-21T05:09:02.923Z,18.40
2018-03-21T05:10:02.938Z,18.00
2018-03-21T05:11:02.947Z,13.30
2018-03-21T05:12:02.961Z,13.00
2018-03-21T05:13:02.974Z,17.90
2018-03-21T05:14:02.986Z,14.90
2018-03-21T05:15:02.999Z,14.30
2018-03-21T05:16:03.012Z,14.80
2018-03-21T05:17:03.025Z,15.30
2018-03-21T05:18:03.037Z,13.00
2018-03-21T05:19:03.049Z,15.10
2018-03-21T05:20:03.063Z,21.70
2018-03-21T05:21:03.075Z,14.00
2018-03-21T05:22:03.088Z,13.50
2018-03-21T05:23:03.101Z,18.10
2018-03-21T05:24:03.113Z,21.00
2018-03-21T05:25:03.126Z,15.20
2018-03-21T05:26:03.138Z,17.80
2018-03-21T05:27:03.150Z,13.30
2018-03-21T05:28:03.164Z,16.40
2018-03-21T05:29:03.176Z,14.20
2018-03-21T05:30:03.189Z,16.60
2018-03-21T05:31:03.202Z,14.40
2018-03-21T05:32:03.215Z,28.70
2018-03-21T05:33:03.228Z,18.50
2018-03-21T05:34:03.241Z,16.90
2018-03-21T05:35:03.252Z,20.60
2018-03-21T05:36:03.265Z,20.30
2018-03-21T05:37:03.278Z,21.90
2018-03-21T05:38:03.293Z,20.80
2018-03-21T05:39:03.303Z,21.70
2018-03-21T05:40:03.316Z,16.40
2018-03-21T05:41:03.329Z,20.80
2018-03-21T05:42:03.341Z,19.10
2018-03-21T05:43:03.353Z,18.30
2018-03-21T05:44:03.367Z,19.20
2018-03-21T05:45:03.383Z,18.70
2018-03-21T05:46:03.391Z,20.90
2018-03-21T05:47:03.405Z,28.60
2018-03-21T05:48:03.419Z,20.60
2018-03-21T05:49:03.430Z,20.20
2018-03-21T05:50:03.443Z,21.90
2018-03-21T05:51:03.454Z,21.60
2018-03-21T05:52:03.467Z,16.80
2018-03-21T05:53:03.481Z,19.60
2018-03-21T05:54:03.492Z,20.50
2018-03-21T05:55:03.506Z,20.90
2018-03-21T05:56:03.518Z,19.10
2018-03-21T05:57:03.531Z,21.30
2018-03-21T05:58:03.543Z,22.30
2018-03-21T05:59:03.554Z,23.30
2018-03-21T06:00:03.568Z,21.10
2018-03-21T06:01:03.584Z,26.60
2018-03-21T06:02:03.593Z,25.70
2018-03-21T06:03:03.606Z,23.30
2018-03-21T06:04:03.619Z,19.50
2018-03-21T06:05:03.631Z,19.80
2018-03-21T06:06:03.647Z,23.80
2018-03-21T06:07:03.656Z,21.30
2018-03-21T06:08:03.670Z,25.00
2018-03-21T06:09:03.682Z,29.20
2018-03-21T06:10:03.693Z,21.10
2018-03-21T06:11:03.707Z,19.40
2018-03-21T06:12:03.769Z,17.90
2018-03-21T06:13:03.733Z,24.40
2018-03-21T06:14:03.791Z,26.30
2018-03-21T06:15:03.757Z,28.00
2018-03-21T06:16:03.769Z,22.20
2018-03-21T06:17:03.783Z,23.40
2018-03-21T06:18:03.794Z,26.90
2018-03-21T06:19:03.807Z,22.80
2018-03-21T06:20:03.820Z,22.90
2018-03-21T06:21:03.832Z,23.70
2018-03-21T06:22:03.844Z,21.50
2018-03-21T06:23:03.860Z,20.00
2018-03-21T06:24:03.871Z,26.60
2018-03-21T06:25:03.882Z,36.20
2018-03-21T06:26:03.894Z,34.00
2018-03-21T06:27:03.906Z,34.80
2018-03-21T06:28:03.920Z,30.80
2018-03-21T06:29:03.932Z,29.50
2018-03-21T06:30:03.947Z,27.80
2018-03-21T06:31:03.956Z,28.20
2018-03-21T06:32:03.968Z,36.80
2018-03-21T06:33:03.981Z,36.80
2018-03-21T06:34:03.993Z,37.20
2018-03-21T06:35:04.005Z,26.90
2018-03-21T06:36:04.017Z,37.30
2018-03-21T06:37:04.030Z,51.50
2018-03-21T06:38:04.092Z,36.70
2018-03-21T06:39:04.054Z,39.60
2018-03-21T06:40:04.066Z,40.90
2018-03-21T06:41:04.079Z,33.20
2018-03-21T06:42:04.090Z,33.70
2018-03-21T06:43:04.102Z,36.50
2018-03-21T06:44:04.115Z,33.50
2018-03-21T06:45:04.129Z,30.70
2018-03-21T06:46:04.139Z,30.70
2018-03-21T06:47:04.152Z,28.60
2018-03-21T06:48:04.164Z,29.10
2018-03-21T06:49:04.177Z,29.10
2018-03-21T06:50:04.229Z,27.10
2018-03-21T06:51:04.201Z,25.40
2018-03-21T06:52:04.214Z,23.00
2018-03-21T06:53:04.227Z,29.40
2018-03-21T06:54:04.238Z,25.20
2018-03-21T06:55:04.252Z,27.40
2018-03-21T06:56:04.262Z,28.60
2018-03-21T06:57:04.276Z,27.40
2018-03-21T06:58:04.288Z,26.00
2018-03-21T06:59:04.301Z,24.80
2018-03-21T07:00:04.316Z,27.70
2018-03-21T07:01:04.326Z,26.30
2018-03-21T07:02:04.338Z,28.50
2018-03-21T07:03:04.352Z,26.40
2018-03-21T07:04:04.365Z,25.50
2018-03-21T07:05:04.376Z,26.20
2018-03-21T07:06:04.388Z,29.00
2018-03-21T07:07:04.402Z,28.70
2018-03-21T07:08:04.414Z,31.00
2018-03-21T07:09:04.426Z,30.10
2018-03-21T07:10:04.439Z,29.60
2018-03-21T07:11:04.452Z,25.30
2018-03-21T07:12:04.465Z,28.20
2018-03-21T07:13:04.479Z,23.40
2018-03-21T07:14:04.490Z,23.30
2018-03-21T07:15:04.504Z,25.90
2018-03-21T07:16:04.517Z,26.30
2018-03-21T07:17:04.530Z,25.30
2018-03-21T07:18:04.544Z,23.30
2018-03-21T07:19:04.556Z,22.50
2018-03-21T07:20:04.568Z,22.30
2018-03-21T07:21:04.582Z,23.30
2018-03-21T07:22:04.594Z,33.50
2018-03-21T07:23:04.609Z,27.30
2018-03-21T07:24:04.621Z,27.80
2018-03-21T07:25:04.633Z,28.00
2018-03-21T07:26:04.646Z,23.70
2018-03-21T07:27:04.658Z,28.00
2018-03-21T07:28:04.675Z,27.40
2018-03-21T07:29:04.685Z,31.70
2018-03-21T07:30:04.698Z,26.90
2018-03-21T07:31:04.734Z,27.50
2018-03-21T07:32:04.724Z,29.40
2018-03-21T07:33:04.737Z,32.20
2018-03-21T07:34:04.751Z,28.80
2018-03-21T07:35:04.763Z,26.00
2018-03-21T07:36:04.776Z,27.70
2018-03-21T07:37:04.789Z,27.90
2018-03-21T07:38:04.801Z,27.60
2018-03-21T07:39:04.835Z,33.40
2018-03-21T07:40:04.865Z,32.60
2018-03-21T07:41:04.841Z,33.30
2018-03-21T07:42:04.853Z,32.00
2018-03-21T07:43:04.866Z,30.20
2018-03-21T07:44:04.880Z,29.10
2018-03-21T07:45:04.949Z,27.50
2018-03-21T07:46:04.905Z,27.80
2018-03-21T07:47:04.918Z,29.70
2018-03-21T07:48:04.933Z,27.90
2018-03-21T07:49:04.946Z,26.10
2018-03-21T07:50:04.957Z,28.70
2018-03-21T07:51:04.973Z,28.60
2018-03-21T07:52:04.983Z,32.30
2018-03-21T07:53:04.997Z,31.80
2018-03-21T07:54:05.009Z,37.40
2018-03-21T07:55:05.023Z,35.60
2018-03-21T07:56:05.036Z,40.90
2018-03-21T07:57:05.049Z,34.00
2018-03-21T07:58:05.061Z,34.50
2018-03-21T07:59:05.075Z,29.40
2018-03-21T08:00:05.093Z,32.80
2018-03-21T08:01:05.102Z,31.10
2018-03-21T08:02:05.114Z,37.80
2018-03-21T08:03:05.128Z,33.80
2018-03-21T08:04:05.211Z,32.30
2018-03-21T08:05:05.156Z,31.40
2018-03-21T08:06:05.167Z,34.00
2018-03-21T08:07:05.181Z,34.70
2018-03-21T08:08:05.196Z,32.00
2018-03-21T08:09:05.208Z,32.20
2018-03-21T08:10:05.220Z,32.50
2018-03-21T08:11:05.284Z,33.50
2018-03-21T08:12:05.302Z,29.70
2018-03-21T08:13:05.262Z,28.30
2018-03-21T08:14:05.274Z,30.60
2018-03-21T08:15:05.290Z,28.50
2018-03-21T08:16:05.303Z,29.10
2018-03-21T08:17:05.320Z,28.50
2018-03-21T08:18:05.330Z,25.70
2018-03-21T08:19:05.348Z,28.40
2018-03-21T08:20:05.357Z,28.20
2018-03-21T08:21:05.372Z,26.40
2018-03-21T08:22:05.384Z,29.70
2018-03-21T08:23:05.398Z,28.10
2018-03-21T08:24:05.413Z,31.00
2018-03-21T08:25:05.472Z,29.70
2018-03-21T08:26:05.440Z,26.10
2018-03-21T08:27:05.455Z,28.00
2018-03-21T08:28:05.469Z,23.70
2018-03-21T08:29:05.528Z,25.00
2018-03-21T08:30:05.498Z,23.90
2018-03-21T08:31:05.512Z,23.80
2018-03-21T08:32:05.580Z,23.10
2018-03-21T08:33:05.540Z,21.00
2018-03-21T08:34:05.554Z,25.80
2018-03-21T08:35:05.568Z,24.90
2018-03-21T08:36:05.583Z,21.70
2018-03-21T08:37:05.597Z,23.10
2018-03-21T08:38:05.681Z,21.90
2018-03-21T08:39:05.627Z,23.50
2018-03-21T08:40:05.642Z,27.80
2018-03-21T08:41:05.656Z,23.90
2018-03-21T08:42:05.670Z,26.60
2018-03-21T08:43:05.685Z,24.80
2018-03-21T08:44:05.700Z,23.50
2018-03-21T08:45:05.714Z,22.20
2018-03-21T08:46:05.729Z,24.40
2018-03-21T08:47:05.744Z,21.70
2018-03-21T08:48:05.772Z,24.70
2018-03-21T08:49:05.773Z,23.60
2018-03-21T08:50:05.787Z,25.40
2018-03-21T08:51:05.807Z,24.90
2018-03-21T08:52:05.820Z,27.20
2018-03-21T08:53:05.832Z,23.70
2018-03-21T08:54:05.850Z,26.50
2018-03-21T08:55:05.863Z,29.70
2018-03-21T08:56:05.876Z,26.20
2018-03-21T08:57:05.897Z,26.30
2018-03-21T08:58:05.908Z,25.90
2018-03-21T08:59:05.925Z,22.40
2018-03-21T09:00:05.935Z,26.90
2018-03-21T09:01:05.950Z,25.60
2018-03-21T09:02:05.964Z,22.50
2018-03-21T09:03:05.981Z,24.90
2018-03-21T09:04:05.994Z,23.90
2018-03-21T09:05:06.012Z,23.40
2018-03-21T09:06:06.023Z,27.40
2018-03-21T09:07:06.068Z,25.80
2018-03-21T09:08:06.066Z,21.90
2018-03-21T09:09:06.068Z,23.80
2018-03-21T09:10:06.083Z,24.00
2018-03-21T09:11:06.098Z,20.70
2018-03-21T09:12:06.117Z,24.80
2018-03-21T09:13:06.131Z,22.30
2018-03-21T09:14:06.146Z,21.50
2018-03-21T09:15:06.159Z,20.40
2018-03-21T09:16:06.174Z,19.80
2018-03-21T09:17:06.189Z,20.70
2018-03-21T09:18:06.204Z,18.10
2018-03-21T09:19:06.220Z,20.00
2018-03-21T09:20:06.235Z,22.00
2018-03-21T09:21:06.253Z,20.30
2018-03-21T09:22:06.365Z,26.80
2018-03-21T09:23:06.282Z,21.90
2018-03-21T09:24:06.298Z,24.20
2018-03-21T09:25:06.319Z,24.10
2018-03-21T09:26:06.336Z,23.80
2018-03-21T09:27:06.345Z,19.70
2018-03-21T09:28:06.359Z,21.40
2018-03-21T09:29:06.378Z,20.60
2018-03-21T09:30:06.390Z,19.70
2018-03-21T09:31:06.406Z,20.80
2018-03-21T09:32:06.571Z,17.70
2018-03-21T09:33:06.437Z,17.40
2018-03-21T09:34:06.452Z,20.60
2018-03-21T09:35:06.468Z,22.80
2018-03-21T09:36:06.484Z,18.20
2018-03-21T09:37:06.500Z,16.40
2018-03-21T09:38:06.514Z,16.80
2018-03-21T09:39:06.578Z,17.20
2018-03-21T09:40:06.546Z,17.70
2018-03-21T09:41:06.562Z,18.80
2018-03-21T09:42:06.578Z,19.70
2018-03-21T09:43:06.593Z,24.30
2018-03-21T09:44:06.609Z,19.70
2018-03-21T09:45:06.624Z,18.10
2018-03-21T09:46:06.639Z,16.80
2018-03-21T09:47:06.654Z,18.80
2018-03-21T09:48:06.673Z,21.20
2018-03-21T09:49:06.688Z,18.80
2018-03-21T09:50:06.701Z,17.00
2018-03-21T09:51:06.717Z,18.40
2018-03-21T09:52:06.733Z,20.70
2018-03-21T09:53:06.749Z,15.30
2018-03-21T09:54:06.764Z,19.80
2018-03-21T09:55:06.781Z,23.80
2018-03-21T09:56:06.796Z,21.80
2018-03-21T09:57:06.812Z,17.20
2018-03-21T09:58:06.828Z,20.10
2018-03-21T09:59:06.844Z,19.30
2018-03-21T10:00:06.860Z,16.40
2018-03-21T10:01:06.890Z,26.40
2018-03-21T10:02:06.892Z,21.90
2018-03-21T10:03:06.908Z,23.50
2018-03-21T10:04:06.925Z,26.90
2018-03-21T10:05:06.942Z,14.20
2018-03-21T10:06:06.965Z,13.40
2018-03-21T10:07:06.975Z,21.30
2018-03-21T10:08:06.991Z,16.90
2018-03-21T10:09:07.057Z,16.10
2018-03-21T10:10:07.024Z,22.20
2018-03-21T10:11:07.091Z,16.00
2018-03-21T10:12:07.061Z,16.30
2018-03-21T10:13:07.073Z,25.40
2018-03-21T10:14:07.099Z,15.50
2018-03-21T10:15:07.106Z,18.10
2018-03-21T10:16:07.123Z,18.00
2018-03-21T10:17:07.139Z,18.50
2018-03-21T10:18:07.155Z,32.00
2018-03-21T10:19:07.172Z,17.20
2018-03-21T10:20:07.189Z,19.00
2018-03-21T10:21:07.207Z,79.40
2018-03-21T10:22:07.222Z,37.00
2018-03-21T10:23:07.241Z,22.70
2018-03-21T10:24:07.256Z,15.20
2018-03-21T10:25:07.273Z,17.00
2018-03-21T10:26:07.289Z,14.20
2018-03-21T10:27:07.306Z,15.40
2018-03-21T10:28:07.325Z,16.10
2018-03-21T10:29:07.339Z,21.40
2018-03-21T10:30:07.364Z,18.60
2018-03-21T10:31:07.372Z,14.30
2018-03-21T10:32:07.391Z,20.40
2018-03-21T10:33:07.407Z,24.50
2018-03-21T10:34:07.424Z,16.00
2018-03-21T10:35:07.440Z,16.40
2018-03-21T10:36:07.457Z,18.40
2018-03-21T10:37:07.474Z,18.00
2018-03-21T10:38:07.490Z,12.10
2018-03-21T10:39:07.508Z,15.70
2018-03-21T10:40:07.525Z,19.70
2018-03-21T10:41:07.541Z,15.10
2018-03-21T10:42:07.557Z,19.30
2018-03-21T10:43:07.579Z,21.10
2018-03-21T10:44:07.592Z,20.10
2018-03-21T10:45:07.655Z,19.30
2018-03-21T10:46:07.625Z,16.00
2018-03-21T10:47:07.642Z,15.80
2018-03-21T10:48:07.660Z,17.20
2018-03-21T10:49:07.683Z,13.10
2018-03-21T10:50:07.692Z,14.90
2018-03-21T10:51:07.754Z,17.00
2018-03-21T10:52:07.728Z,19.50
2018-03-21T10:53:07.745Z,20.40
2018-03-21T10:54:07.779Z,24.00
2018-03-21T10:55:07.779Z,21.60
2018-03-21T10:56:07.801Z,15.70
2018-03-21T10:57:07.813Z,19.50
2018-03-21T10:58:07.829Z,14.10
2018-03-21T10:59:07.877Z,22.30
2018-03-21T11:00:07.863Z,13.90
2018-03-21T11:01:07.882Z,15.50
2018-03-21T11:02:07.896Z,14.70
2018-03-21T11:03:07.913Z,21.00
2018-03-21T11:04:07.930Z,16.00
2018-03-21T11:05:07.947Z,16.40
2018-03-21T11:06:07.963Z,18.50
2018-03-21T11:07:07.980Z,19.30
2018-03-21T11:08:08.045Z,21.20
2018-03-21T11:09:08.016Z,22.10
2018-03-21T11:10:08.030Z,18.80
2018-03-21T11:11:08.052Z,17.10
2018-03-21T11:12:08.063Z,18.00
2018-03-21T11:13:08.081Z,25.90
2018-03-21T11:14:08.105Z,22.60
2018-03-21T11:15:08.113Z,21.80
2018-03-21T11:16:08.130Z,20.90
2018-03-21T11:17:08.146Z,22.40
2018-03-21T11:18:08.162Z,28.30
2018-03-21T11:19:08.181Z,21.20
2018-03-21T11:20:08.201Z,15.30
2018-03-21T11:21:08.211Z,19.40
2018-03-21T11:22:08.227Z,16.50
2018-03-21T11:23:08.245Z,19.60
2018-03-21T11:24:08.260Z,22.20
2018-03-21T11:25:08.277Z,22.30
2018-03-21T11:26:08.292Z,18.80
2018-03-21T11:27:08.309Z,16.60
2018-03-21T11:28:08.325Z,27.20
2018-03-21T11:29:08.342Z,17.60
2018-03-21T11:30:08.358Z,23.00
2018-03-21T11:31:08.374Z,23.00
2018-03-21T11:32:08.390Z,18.00
2018-03-21T11:33:08.407Z,20.30
2018-03-21T11:34:08.493Z,16.70
2018-03-21T11:35:08.438Z,19.10
2018-03-21T11:36:08.456Z,20.40
2018-03-21T11:37:08.471Z,21.30
2018-03-21T11:38:08.488Z,21.20
2018-03-21T11:39:08.503Z,22.80
2018-03-21T11:40:08.521Z,20.70
2018-03-21T11:41:08.537Z,20.80
2018-03-21T11:42:08.584Z,16.70
2018-03-21T11:43:08.570Z,23.70
2018-03-21T11:44:08.587Z,22.70
2018-03-21T11:45:08.603Z,23.00
2018-03-21T11:46:08.619Z,18.50
2018-03-21T11:47:08.636Z,17.60
2018-03-21T11:48:08.653Z,20.10
2018-03-21T11:49:08.673Z,23.70
2018-03-21T11:50:08.686Z,18.80
2018-03-21T11:51:08.707Z,18.40
2018-03-21T11:52:08.720Z,26.40
2018-03-21T11:53:08.783Z,18.80
2018-03-21T11:54:08.754Z,17.30
2018-03-21T11:55:08.771Z,18.00
2018-03-21T11:56:08.789Z,23.10
2018-03-21T11:57:08.806Z,15.50
2018-03-21T11:58:08.822Z,23.30
2018-03-21T11:59:08.843Z,25.10
2018-03-21T12:00:08.857Z,20.90
2018-03-21T12:01:08.875Z,17.30
2018-03-21T12:02:08.895Z,18.60
2018-03-21T12:03:08.908Z,17.60
2018-03-21T12:04:08.929Z,19.90
2018-03-21T12:05:08.942Z,19.80
2018-03-21T12:06:08.961Z,15.20
2018-03-21T12:07:08.977Z,21.00
2018-03-21T12:08:08.995Z,16.40
2018-03-21T12:09:09.011Z,15.70
2018-03-21T12:10:09.027Z,21.20
2018-03-21T12:11:09.045Z,18.20
2018-03-21T12:12:09.063Z,16.80
2018-03-21T12:13:09.079Z,17.70
2018-03-21T12:14:09.095Z,16.60
2018-03-21T12:15:09.114Z,12.70
2018-03-21T12:16:09.134Z,19.00
2018-03-21T12:17:09.147Z,14.40
2018-03-21T12:18:09.164Z,13.00
2018-03-21T12:19:09.183Z,18.90
2018-03-21T12:20:09.201Z,15.30
2018-03-21T12:21:09.220Z,19.50
2018-03-21T12:22:09.231Z,18.00
2018-03-21T12:23:09.248Z,18.40
2018-03-21T12:24:09.266Z,18.70
2018-03-21T12:25:09.286Z,16.90
2018-03-21T12:26:09.298Z,18.40
2018-03-21T12:27:09.315Z,21.10
2018-03-21T12:28:09.333Z,16.40
2018-03-21T12:29:09.348Z,19.20
2018-03-21T12:30:09.365Z,14.10
2018-03-21T12:31:09.382Z,15.90
2018-03-21T12:32:09.400Z,21.30
2018-03-21T12:33:09.416Z,11.60
2018-03-21T12:34:09.435Z,17.10
2018-03-21T12:35:09.449Z,13.90
2018-03-21T12:36:09.469Z,12.70
2018-03-21T12:37:09.483Z,15.20
2018-03-21T12:38:09.835Z,15.70
2018-03-21T12:39:09.515Z,18.60
2018-03-21T12:40:09.533Z,12.90
2018-03-21T12:41:09.549Z,20.20
2018-03-21T12:42:09.664Z,19.90
2018-03-21T12:43:09.582Z,18.70
2018-03-21T12:44:09.598Z,16.70
2018-03-21T12:45:09.615Z,12.90
2018-03-21T12:46:09.630Z,21.10
2018-03-21T12:47:09.647Z,22.20
2018-03-21T12:48:09.663Z,15.90
2018-03-21T12:49:09.679Z,21.40
2018-03-21T12:50:09.740Z,18.80
2018-03-21T12:51:09.712Z,17.60
2018-03-21T12:52:09.728Z,17.70
2018-03-21T12:53:09.745Z,14.70
2018-03-21T12:54:09.760Z,15.40
2018-03-21T12:55:09.776Z,20.90
2018-03-21T12:56:09.868Z,21.50
2018-03-21T12:57:10.059Z,19.30
2018-03-21T12:58:09.825Z,15.50